sensor_id;sensor_type;location;lat;lon;timestamp;temperature;humidity
31979;DHT22;18502;43.574;1.276;2023-07-20T00:02:00;19.80;99.90
31979;DHT22;18502;43.574;1.276;2023-07-20T00:04:26;19.80;99.90
31979;DHT22;18502;43.574;1.276;2023-07-20T00:06:51;19.70;99.90
31979;DHT22;18502;43.574;1.276;2023-07-20T00:09:17;19.80;99.90
31979;DHT22;18502;43.574;1.276;2023-07-20T00:11:49;19.80;99.90
31979;DHT22;18502;43.574;1.276;2023-07-20T00:14:16;19.80;99.90
31979;DHT22;18502;43.574;1.276;2023-07-20T00:16:42;19.80;99.90
31979;DHT22;18502;43.574;1.276;2023-07-20T00:19:08;19.70;99.90
31979;DHT22;18502;43.574;1.276;2023-07-20T00:21:34;19.70;99.90
31979;DHT22;18502;43.574;1.276;2023-07-20T00:24:00;19.70;99.90
31979;DHT22;18502;43.574;1.276;2023-07-20T00:26:25;19.70;99.90
31979;DHT22;18502;43.574;1.276;2023-07-20T00:28:51;19.70;99.90
31979;DHT22;18502;43.574;1.276;2023-07-20T00:31:17;19.60;99.90
31979;DHT22;18502;43.574;1.276;2023-07-20T00:33:43;19.60;99.90
31979;DHT22;18502;43.574;1.276;2023-07-20T00:36:08;19.60;99.90
31979;DHT22;18502;43.574;1.276;2023-07-20T00:38:34;19.60;99.90
31979;DHT22;18502;43.574;1.276;2023-07-20T00:41:00;19.50;99.90
31979;DHT22;18502;43.574;1.276;2023-07-20T00:43:25;19.50;99.90
31979;DHT22;18502;43.574;1.276;2023-07-20T00:45:51;19.50;99.90
31979;DHT22;18502;43.574;1.276;2023-07-20T00:48:17;19.50;99.90
31979;DHT22;18502;43.574;1.276;2023-07-20T00:50:43;19.40;99.90
31979;DHT22;18502;43.574;1.276;2023-07-20T00:53:09;19.30;99.90
31979;DHT22;18502;43.574;1.276;2023-07-20T00:55:35;19.30;99.90
31979;DHT22;18502;43.574;1.276;2023-07-20T00:58:01;19.30;99.90
31979;DHT22;18502;43.574;1.276;2023-07-20T01:00:27;19.40;99.90
31979;DHT22;18502;43.574;1.276;2023-07-20T01:02:53;19.30;99.90
31979;DHT22;18502;43.574;1.276;2023-07-20T01:05:20;19.20;99.90
31979;DHT22;18502;43.574;1.276;2023-07-20T01:12:48;19.10;99.90
31979;DHT22;18502;43.574;1.276;2023-07-20T01:15:16;19.20;99.90
31979;DHT22;18502;43.574;1.276;2023-07-20T01:17:42;19.20;99.90
31979;DHT22;18502;43.574;1.276;2023-07-20T01:20:12;19.20;99.90
31979;DHT22;18502;43.574;1.276;2023-07-20T01:33:13;19.00;99.90
31979;DHT22;18502;43.574;1.276;2023-07-20T01:35:41;19.00;99.90
31979;DHT22;18502;43.574;1.276;2023-07-20T01:38:09;19.00;99.90
31979;DHT22;18502;43.574;1.276;2023-07-20T01:40:35;18.90;99.90
31979;DHT22;18502;43.574;1.276;2023-07-20T01:43:02;18.90;99.90
31979;DHT22;18502;43.574;1.276;2023-07-20T01:45:28;18.90;99.90
31979;DHT22;18502;43.574;1.276;2023-07-20T01:47:54;18.80;99.90
31979;DHT22;18502;43.574;1.276;2023-07-20T01:50:19;18.80;99.90
31979;DHT22;18502;43.574;1.276;2023-07-20T01:52:45;18.80;99.90
31979;DHT22;18502;43.574;1.276;2023-07-20T01:55:11;18.80;99.90
31979;DHT22;18502;43.574;1.276;2023-07-20T01:57:37;18.80;99.90
31979;DHT22;18502;43.574;1.276;2023-07-20T02:00:03;18.70;99.90
31979;DHT22;18502;43.574;1.276;2023-07-20T02:02:29;18.70;99.90
31979;DHT22;18502;43.574;1.276;2023-07-20T02:04:55;18.70;99.90
31979;DHT22;18502;43.574;1.276;2023-07-20T02:07:20;18.60;99.90
31979;DHT22;18502;43.574;1.276;2023-07-20T02:09:46;18.70;99.90
31979;DHT22;18502;43.574;1.276;2023-07-20T02:12:12;18.60;99.90
31979;DHT22;18502;43.574;1.276;2023-07-20T02:14:37;18.50;99.90
31979;DHT22;18502;43.574;1.276;2023-07-20T02:17:03;18.50;99.90
31979;DHT22;18502;43.574;1.276;2023-07-20T02:19:30;18.50;99.90
31979;DHT22;18502;43.574;1.276;2023-07-20T02:21:55;18.50;99.90
31979;DHT22;18502;43.574;1.276;2023-07-20T02:24:21;18.40;99.90
31979;DHT22;18502;43.574;1.276;2023-07-20T02:26:47;18.30;99.90
31979;DHT22;18502;43.574;1.276;2023-07-20T02:29:12;18.40;99.90
31979;DHT22;18502;43.574;1.276;2023-07-20T02:31:38;18.30;99.90
31979;DHT22;18502;43.574;1.276;2023-07-20T02:34:05;18.30;99.90
31979;DHT22;18502;43.574;1.276;2023-07-20T02:36:31;18.20;99.90
31979;DHT22;18502;43.574;1.276;2023-07-20T02:38:58;18.10;99.90
31979;DHT22;18502;43.574;1.276;2023-07-20T02:41:24;18.10;99.90
31979;DHT22;18502;43.574;1.276;2023-07-20T02:43:50;18.10;99.90
31979;DHT22;18502;43.574;1.276;2023-07-20T02:46:15;17.90;99.90
31979;DHT22;18502;43.574;1.276;2023-07-20T02:48:41;17.70;99.90
31979;DHT22;18502;43.574;1.276;2023-07-20T02:51:07;17.60;99.90
31979;DHT22;18502;43.574;1.276;2023-07-20T02:53:33;17.50;99.90
31979;DHT22;18502;43.574;1.276;2023-07-20T02:55:59;17.40;99.90
31979;DHT22;18502;43.574;1.276;2023-07-20T02:58:24;17.30;99.90
31979;DHT22;18502;43.574;1.276;2023-07-20T03:00:50;17.30;99.90
31979;DHT22;18502;43.574;1.276;2023-07-20T03:03:16;17.40;99.90
31979;DHT22;18502;43.574;1.276;2023-07-20T03:05:42;17.40;99.90
31979;DHT22;18502;43.574;1.276;2023-07-20T03:08:08;17.30;99.90
31979;DHT22;18502;43.574;1.276;2023-07-20T03:10:39;17.30;99.90
31979;DHT22;18502;43.574;1.276;2023-07-20T03:13:06;17.20;99.90
31979;DHT22;18502;43.574;1.276;2023-07-20T03:15:32;17.10;99.90
31979;DHT22;18502;43.574;1.276;2023-07-20T03:17:57;17.00;99.90
31979;DHT22;18502;43.574;1.276;2023-07-20T03:20:24;16.70;99.90
31979;DHT22;18502;43.574;1.276;2023-07-20T03:22:50;16.70;99.90
31979;DHT22;18502;43.574;1.276;2023-07-20T03:25:15;16.80;99.90
31979;DHT22;18502;43.574;1.276;2023-07-20T03:27:41;16.90;99.90
31979;DHT22;18502;43.574;1.276;2023-07-20T03:30:07;16.90;99.90
31979;DHT22;18502;43.574;1.276;2023-07-20T03:32:35;16.90;99.90
31979;DHT22;18502;43.574;1.276;2023-07-20T03:35:01;16.90;99.90
31979;DHT22;18502;43.574;1.276;2023-07-20T03:37:26;16.90;99.90
31979;DHT22;18502;43.574;1.276;2023-07-20T03:39:52;16.90;99.90
31979;DHT22;18502;43.574;1.276;2023-07-20T03:42:18;16.80;99.90
31979;DHT22;18502;43.574;1.276;2023-07-20T03:44:43;16.80;99.90
31979;DHT22;18502;43.574;1.276;2023-07-20T03:47:09;16.90;99.90
31979;DHT22;18502;43.574;1.276;2023-07-20T03:49:35;16.70;99.90
31979;DHT22;18502;43.574;1.276;2023-07-20T03:52:01;16.60;99.90
31979;DHT22;18502;43.574;1.276;2023-07-20T03:54:28;16.60;99.90
31979;DHT22;18502;43.574;1.276;2023-07-20T03:56:54;16.70;99.90
31979;DHT22;18502;43.574;1.276;2023-07-20T03:59:20;16.70;99.90
31979;DHT22;18502;43.574;1.276;2023-07-20T04:01:46;16.70;99.90
31979;DHT22;18502;43.574;1.276;2023-07-20T04:04:13;16.70;99.90
31979;DHT22;18502;43.574;1.276;2023-07-20T04:06:39;16.70;99.90
31979;DHT22;18502;43.574;1.276;2023-07-20T04:09:04;16.60;99.90
31979;DHT22;18502;43.574;1.276;2023-07-20T04:11:30;16.50;99.90
31979;DHT22;18502;43.574;1.276;2023-07-20T04:13:56;16.40;99.90
31979;DHT22;18502;43.574;1.276;2023-07-20T04:16:22;16.30;99.90
31979;DHT22;18502;43.574;1.276;2023-07-20T04:18:47;16.40;99.90
31979;DHT22;18502;43.574;1.276;2023-07-20T04:21:13;16.50;99.90
31979;DHT22;18502;43.574;1.276;2023-07-20T04:23:39;16.50;99.90
31979;DHT22;18502;43.574;1.276;2023-07-20T04:26:04;16.50;99.90
31979;DHT22;18502;43.574;1.276;2023-07-20T04:28:32;16.40;99.90
31979;DHT22;18502;43.574;1.276;2023-07-20T04:31:12;16.50;99.90
31979;DHT22;18502;43.574;1.276;2023-07-20T04:33:38;16.50;99.90
31979;DHT22;18502;43.574;1.276;2023-07-20T04:36:04;16.50;99.90
31979;DHT22;18502;43.574;1.276;2023-07-20T04:38:30;16.40;99.90
31979;DHT22;18502;43.574;1.276;2023-07-20T04:40:55;16.40;99.90
31979;DHT22;18502;43.574;1.276;2023-07-20T04:43:21;16.30;99.90
31979;DHT22;18502;43.574;1.276;2023-07-20T04:45:47;16.30;99.90
31979;DHT22;18502;43.574;1.276;2023-07-20T04:48:16;16.20;99.90
31979;DHT22;18502;43.574;1.276;2023-07-20T04:50:43;16.20;99.90
31979;DHT22;18502;43.574;1.276;2023-07-20T04:53:13;16.20;99.90
31979;DHT22;18502;43.574;1.276;2023-07-20T04:55:39;16.20;99.90
31979;DHT22;18502;43.574;1.276;2023-07-20T04:58:06;16.30;99.90
31979;DHT22;18502;43.574;1.276;2023-07-20T05:00:33;16.20;99.90
31979;DHT22;18502;43.574;1.276;2023-07-20T05:02:59;16.20;99.90
31979;DHT22;18502;43.574;1.276;2023-07-20T05:05:24;16.30;99.90
31979;DHT22;18502;43.574;1.276;2023-07-20T05:07:50;16.40;99.90
31979;DHT22;18502;43.574;1.276;2023-07-20T05:10:16;16.40;99.90
31979;DHT22;18502;43.574;1.276;2023-07-20T05:12:42;16.30;99.90
31979;DHT22;18502;43.574;1.276;2023-07-20T05:15:08;16.40;99.90
31979;DHT22;18502;43.574;1.276;2023-07-20T05:17:34;16.50;99.90
31979;DHT22;18502;43.574;1.276;2023-07-20T05:19:59;16.70;99.90
31979;DHT22;18502;43.574;1.276;2023-07-20T05:22:25;16.70;99.90
31979;DHT22;18502;43.574;1.276;2023-07-20T05:24:50;17.00;99.90
31979;DHT22;18502;43.574;1.276;2023-07-20T05:27:16;17.20;99.90
31979;DHT22;18502;43.574;1.276;2023-07-20T05:29:45;17.40;99.90
31979;DHT22;18502;43.574;1.276;2023-07-20T05:32:12;17.40;99.90
31979;DHT22;18502;43.574;1.276;2023-07-20T05:34:38;17.60;99.90
31979;DHT22;18502;43.574;1.276;2023-07-20T05:37:03;17.70;99.90
31979;DHT22;18502;43.574;1.276;2023-07-20T05:39:29;17.80;99.90
31979;DHT22;18502;43.574;1.276;2023-07-20T05:41:55;17.80;99.90
31979;DHT22;18502;43.574;1.276;2023-07-20T05:44:20;17.80;99.90
31979;DHT22;18502;43.574;1.276;2023-07-20T05:46:46;17.80;99.90
31979;DHT22;18502;43.574;1.276;2023-07-20T05:49:12;17.90;99.90
31979;DHT22;18502;43.574;1.276;2023-07-20T05:51:37;18.00;99.90
31979;DHT22;18502;43.574;1.276;2023-07-20T05:54:03;18.00;99.90
31979;DHT22;18502;43.574;1.276;2023-07-20T05:56:29;18.10;99.90
31979;DHT22;18502;43.574;1.276;2023-07-20T05:58:54;18.20;99.90
31979;DHT22;18502;43.574;1.276;2023-07-20T06:01:20;18.20;99.90
31979;DHT22;18502;43.574;1.276;2023-07-20T06:03:45;18.20;99.90
31979;DHT22;18502;43.574;1.276;2023-07-20T06:06:11;18.20;99.90
31979;DHT22;18502;43.574;1.276;2023-07-20T06:08:38;18.20;99.90
31979;DHT22;18502;43.574;1.276;2023-07-20T06:11:04;18.30;99.90
31979;DHT22;18502;43.574;1.276;2023-07-20T06:13:30;18.50;99.90
31979;DHT22;18502;43.574;1.276;2023-07-20T06:15:56;18.50;99.90
31979;DHT22;18502;43.574;1.276;2023-07-20T06:18:25;18.60;99.90
31979;DHT22;18502;43.574;1.276;2023-07-20T06:20:51;18.60;99.90
31979;DHT22;18502;43.574;1.276;2023-07-20T06:23:18;18.80;99.90
31979;DHT22;18502;43.574;1.276;2023-07-20T06:25:44;18.90;99.90
31979;DHT22;18502;43.574;1.276;2023-07-20T06:28:10;19.10;99.90
31979;DHT22;18502;43.574;1.276;2023-07-20T06:30:36;19.10;99.90
31979;DHT22;18502;43.574;1.276;2023-07-20T06:33:01;19.10;99.90
31979;DHT22;18502;43.574;1.276;2023-07-20T06:35:27;19.20;99.90
31979;DHT22;18502;43.574;1.276;2023-07-20T06:37:52;19.30;99.90
31979;DHT22;18502;43.574;1.276;2023-07-20T06:40:18;19.40;99.90
31979;DHT22;18502;43.574;1.276;2023-07-20T06:42:44;19.50;99.90
31979;DHT22;18502;43.574;1.276;2023-07-20T06:45:10;19.60;99.90
31979;DHT22;18502;43.574;1.276;2023-07-20T06:47:38;19.70;99.90
31979;DHT22;18502;43.574;1.276;2023-07-20T06:50:06;19.60;99.90
31979;DHT22;18502;43.574;1.276;2023-07-20T06:52:32;19.60;99.90
31979;DHT22;18502;43.574;1.276;2023-07-20T06:54:58;19.60;99.90
31979;DHT22;18502;43.574;1.276;2023-07-20T06:57:23;19.70;99.90
31979;DHT22;18502;43.574;1.276;2023-07-20T06:59:49;19.80;99.90
31979;DHT22;18502;43.574;1.276;2023-07-20T07:02:15;19.90;99.90
31979;DHT22;18502;43.574;1.276;2023-07-20T07:04:41;20.00;99.90
31979;DHT22;18502;43.574;1.276;2023-07-20T07:07:07;20.10;99.90
31979;DHT22;18502;43.574;1.276;2023-07-20T07:09:32;20.20;99.90
31979;DHT22;18502;43.574;1.276;2023-07-20T07:11:58;20.20;99.90
31979;DHT22;18502;43.574;1.276;2023-07-20T07:14:24;20.20;99.90
31979;DHT22;18502;43.574;1.276;2023-07-20T07:16:50;20.20;99.90
31979;DHT22;18502;43.574;1.276;2023-07-20T07:19:15;20.30;99.90
31979;DHT22;18502;43.574;1.276;2023-07-20T07:21:41;20.40;99.90
31979;DHT22;18502;43.574;1.276;2023-07-20T07:24:06;20.40;99.90
31979;DHT22;18502;43.574;1.276;2023-07-20T07:26:33;20.30;99.90
31979;DHT22;18502;43.574;1.276;2023-07-20T07:28:59;20.50;99.90
31979;DHT22;18502;43.574;1.276;2023-07-20T07:31:29;20.60;99.90
31979;DHT22;18502;43.574;1.276;2023-07-20T07:33:56;20.80;99.90
31979;DHT22;18502;43.574;1.276;2023-07-20T07:36:21;21.00;99.90
31979;DHT22;18502;43.574;1.276;2023-07-20T07:38:47;21.10;99.90
31979;DHT22;18502;43.574;1.276;2023-07-20T07:41:13;21.30;99.90
31979;DHT22;18502;43.574;1.276;2023-07-20T07:43:39;21.40;99.90
31979;DHT22;18502;43.574;1.276;2023-07-20T07:46:05;21.40;99.90
31979;DHT22;18502;43.574;1.276;2023-07-20T07:48:30;21.50;99.90
31979;DHT22;18502;43.574;1.276;2023-07-20T07:50:56;21.60;99.90
31979;DHT22;18502;43.574;1.276;2023-07-20T07:53:22;21.80;99.90
31979;DHT22;18502;43.574;1.276;2023-07-20T07:55:48;21.90;99.90
31979;DHT22;18502;43.574;1.276;2023-07-20T07:58:14;21.80;99.90
31979;DHT22;18502;43.574;1.276;2023-07-20T08:00:39;21.90;99.90
31979;DHT22;18502;43.574;1.276;2023-07-20T08:03:08;22.00;99.90
31979;DHT22;18502;43.574;1.276;2023-07-20T08:05:34;22.20;99.90
31979;DHT22;18502;43.574;1.276;2023-07-20T08:08:01;22.30;99.90
31979;DHT22;18502;43.574;1.276;2023-07-20T08:10:27;22.40;99.90
31979;DHT22;18502;43.574;1.276;2023-07-20T08:12:52;22.50;99.90
31979;DHT22;18502;43.574;1.276;2023-07-20T08:15:18;22.30;99.90
31979;DHT22;18502;43.574;1.276;2023-07-20T08:17:44;22.30;99.90
31979;DHT22;18502;43.574;1.276;2023-07-20T08:20:10;22.50;99.90
31979;DHT22;18502;43.574;1.276;2023-07-20T08:22:38;22.70;99.90
31979;DHT22;18502;43.574;1.276;2023-07-20T08:25:06;22.90;99.90
31979;DHT22;18502;43.574;1.276;2023-07-20T08:27:31;22.90;99.90
31979;DHT22;18502;43.574;1.276;2023-07-20T08:29:57;22.80;99.90
31979;DHT22;18502;43.574;1.276;2023-07-20T08:32:23;22.90;99.90
31979;DHT22;18502;43.574;1.276;2023-07-20T08:34:48;23.00;99.90
31979;DHT22;18502;43.574;1.276;2023-07-20T08:37:14;23.00;99.90
31979;DHT22;18502;43.574;1.276;2023-07-20T08:39:40;23.20;99.90
31979;DHT22;18502;43.574;1.276;2023-07-20T08:42:06;23.30;99.90
31979;DHT22;18502;43.574;1.276;2023-07-20T08:44:35;23.20;99.90
31979;DHT22;18502;43.574;1.276;2023-07-20T08:47:02;23.20;99.90
31979;DHT22;18502;43.574;1.276;2023-07-20T08:49:31;23.50;99.90
31979;DHT22;18502;43.574;1.276;2023-07-20T08:51:58;23.50;99.90
31979;DHT22;18502;43.574;1.276;2023-07-20T08:54:28;23.50;99.90
31979;DHT22;18502;43.574;1.276;2023-07-20T08:56:56;23.70;99.90
31979;DHT22;18502;43.574;1.276;2023-07-20T08:59:23;23.80;99.90
31979;DHT22;18502;43.574;1.276;2023-07-20T09:01:51;23.90;99.90
31979;DHT22;18502;43.574;1.276;2023-07-20T09:04:19;23.90;99.90
31979;DHT22;18502;43.574;1.276;2023-07-20T09:06:45;24.40;99.90
31979;DHT22;18502;43.574;1.276;2023-07-20T09:09:10;24.80;99.90
31979;DHT22;18502;43.574;1.276;2023-07-20T09:11:36;25.10;99.90
31979;DHT22;18502;43.574;1.276;2023-07-20T09:14:05;25.00;99.90
31979;DHT22;18502;43.574;1.276;2023-07-20T09:16:31;24.80;99.90
31979;DHT22;18502;43.574;1.276;2023-07-20T09:19:00;25.40;99.90
31979;DHT22;18502;43.574;1.276;2023-07-20T09:21:29;25.80;99.90
31979;DHT22;18502;43.574;1.276;2023-07-20T09:23:58;26.30;99.90
31979;DHT22;18502;43.574;1.276;2023-07-20T09:26:24;26.90;99.90
31979;DHT22;18502;43.574;1.276;2023-07-20T09:28:52;27.30;99.90
31979;DHT22;18502;43.574;1.276;2023-07-20T09:31:19;27.80;99.90
31979;DHT22;18502;43.574;1.276;2023-07-20T09:33:46;28.20;99.90
31979;DHT22;18502;43.574;1.276;2023-07-20T09:36:12;28.30;99.90
31979;DHT22;18502;43.574;1.276;2023-07-20T09:38:39;28.80;99.90
31979;DHT22;18502;43.574;1.276;2023-07-20T09:41:05;29.00;99.90
31979;DHT22;18502;43.574;1.276;2023-07-20T09:43:35;29.00;99.90
31979;DHT22;18502;43.574;1.276;2023-07-20T09:46:01;29.20;99.90
31979;DHT22;18502;43.574;1.276;2023-07-20T09:48:26;29.00;99.90
31979;DHT22;18502;43.574;1.276;2023-07-20T09:50:53;28.70;99.90
31979;DHT22;18502;43.574;1.276;2023-07-20T09:53:20;28.60;99.90
31979;DHT22;18502;43.574;1.276;2023-07-20T09:55:47;28.50;99.90
31979;DHT22;18502;43.574;1.276;2023-07-20T09:58:14;28.30;99.90
31979;DHT22;18502;43.574;1.276;2023-07-20T10:00:41;28.20;99.90
31979;DHT22;18502;43.574;1.276;2023-07-20T10:03:22;28.40;99.90
31979;DHT22;18502;43.574;1.276;2023-07-20T10:06:00;28.50;99.90
31979;DHT22;18502;43.574;1.276;2023-07-20T10:08:29;28.30;99.90
31979;DHT22;18502;43.574;1.276;2023-07-20T10:10:57;28.80;99.90
31979;DHT22;18502;43.574;1.276;2023-07-20T10:13:29;29.10;99.90
31979;DHT22;18502;43.574;1.276;2023-07-20T10:16:11;29.70;99.90
31979;DHT22;18502;43.574;1.276;2023-07-20T10:21:31;30.10;99.90
31979;DHT22;18502;43.574;1.276;2023-07-20T10:23:59;29.60;99.90
31979;DHT22;18502;43.574;1.276;2023-07-20T10:26:26;28.80;99.90
31979;DHT22;18502;43.574;1.276;2023-07-20T10:28:53;29.30;99.90
31979;DHT22;18502;43.574;1.276;2023-07-20T10:31:19;29.70;99.90
31979;DHT22;18502;43.574;1.276;2023-07-20T10:33:46;30.00;99.90
31979;DHT22;18502;43.574;1.276;2023-07-20T10:36:12;29.70;99.90
31979;DHT22;18502;43.574;1.276;2023-07-20T10:43:43;28.60;99.90
31979;DHT22;18502;43.574;1.276;2023-07-20T10:46:11;28.60;99.90
31979;DHT22;18502;43.574;1.276;2023-07-20T10:48:59;28.50;99.90
31979;DHT22;18502;43.574;1.276;2023-07-20T10:51:26;28.50;99.90
31979;DHT22;18502;43.574;1.276;2023-07-20T10:53:52;28.40;99.90
31979;DHT22;18502;43.574;1.276;2023-07-20T10:56:21;28.50;99.90
31979;DHT22;18502;43.574;1.276;2023-07-20T10:58:47;29.00;99.90
31979;DHT22;18502;43.574;1.276;2023-07-20T11:01:16;29.10;99.90
31979;DHT22;18502;43.574;1.276;2023-07-20T11:03:43;29.20;99.90
31979;DHT22;18502;43.574;1.276;2023-07-20T11:11:34;30.50;99.90
31979;DHT22;18502;43.574;1.276;2023-07-20T11:14:05;30.50;99.90
31979;DHT22;18502;43.574;1.276;2023-07-20T11:16:43;30.60;99.90
31979;DHT22;18502;43.574;1.276;2023-07-20T11:21:45;30.20;99.90
31979;DHT22;18502;43.574;1.276;2023-07-20T11:24:11;29.40;99.90
31979;DHT22;18502;43.574;1.276;2023-07-20T11:26:54;28.50;99.90
31979;DHT22;18502;43.574;1.276;2023-07-20T11:29:22;29.50;99.90
31979;DHT22;18502;43.574;1.276;2023-07-20T11:31:49;30.10;99.90
31979;DHT22;18502;43.574;1.276;2023-07-20T11:34:20;30.30;99.90
31979;DHT22;18502;43.574;1.276;2023-07-20T11:36:49;30.50;99.90
31979;DHT22;18502;43.574;1.276;2023-07-20T11:39:16;30.40;99.90
31979;DHT22;18502;43.574;1.276;2023-07-20T11:41:55;30.30;99.90
31979;DHT22;18502;43.574;1.276;2023-07-20T11:44:26;30.60;99.90
31979;DHT22;18502;43.574;1.276;2023-07-20T11:47:09;31.00;99.90
31979;DHT22;18502;43.574;1.276;2023-07-20T11:49:36;31.90;99.90
31979;DHT22;18502;43.574;1.276;2023-07-20T11:52:04;34.20;99.90
31979;DHT22;18502;43.574;1.276;2023-07-20T11:54:30;37.00;99.90
31979;DHT22;18502;43.574;1.276;2023-07-20T11:57:00;38.70;99.90
31979;DHT22;18502;43.574;1.276;2023-07-20T11:59:25;40.60;99.90
31979;DHT22;18502;43.574;1.276;2023-07-20T12:01:52;41.90;99.90
31979;DHT22;18502;43.574;1.276;2023-07-20T12:04:18;43.00;99.90
31979;DHT22;18502;43.574;1.276;2023-07-20T12:06:45;40.80;99.90
31979;DHT22;18502;43.574;1.276;2023-07-20T12:09:16;42.70;99.90
31979;DHT22;18502;43.574;1.276;2023-07-20T12:11:43;44.20;99.90
31979;DHT22;18502;43.574;1.276;2023-07-20T12:14:10;44.10;99.90
31979;DHT22;18502;43.574;1.276;2023-07-20T12:16:37;45.20;99.90
31979;DHT22;18502;43.574;1.276;2023-07-20T12:19:12;45.10;99.90
31979;DHT22;18502;43.574;1.276;2023-07-20T12:21:40;45.90;99.90
31979;DHT22;18502;43.574;1.276;2023-07-20T12:24:07;47.10;97.80
31979;DHT22;18502;43.574;1.276;2023-07-20T12:26:34;47.10;96.30
31979;DHT22;18502;43.574;1.276;2023-07-20T12:29:00;43.60;95.10
31979;DHT22;18502;43.574;1.276;2023-07-20T12:31:27;45.40;95.40
31979;DHT22;18502;43.574;1.276;2023-07-20T12:33:53;46.30;94.40
31979;DHT22;18502;43.574;1.276;2023-07-20T12:36:22;46.30;94.60
31979;DHT22;18502;43.574;1.276;2023-07-20T12:38:47;44.70;93.40
31979;DHT22;18502;43.574;1.276;2023-07-20T12:41:13;43.60;94.80
31979;DHT22;18502;43.574;1.276;2023-07-20T12:43:44;46.00;93.80
31979;DHT22;18502;43.574;1.276;2023-07-20T12:46:11;47.00;94.00
31979;DHT22;18502;43.574;1.276;2023-07-20T12:48:38;47.60;93.00
31979;DHT22;18502;43.574;1.276;2023-07-20T12:51:06;46.80;92.00
31979;DHT22;18502;43.574;1.276;2023-07-20T12:53:32;47.70;91.60
31979;DHT22;18502;43.574;1.276;2023-07-20T12:55:58;47.80;90.00
31979;DHT22;18502;43.574;1.276;2023-07-20T12:58:24;47.60;89.50
31979;DHT22;18502;43.574;1.276;2023-07-20T13:00:49;47.90;89.40
31979;DHT22;18502;43.574;1.276;2023-07-20T13:03:15;47.70;87.50
31979;DHT22;18502;43.574;1.276;2023-07-20T13:05:41;47.40;88.90
31979;DHT22;18502;43.574;1.276;2023-07-20T13:08:07;48.10;87.90
31979;DHT22;18502;43.574;1.276;2023-07-20T13:10:33;48.00;86.50
31979;DHT22;18502;43.574;1.276;2023-07-20T13:12:59;48.40;85.90
31979;DHT22;18502;43.574;1.276;2023-07-20T13:15:30;49.30;85.90
31979;DHT22;18502;43.574;1.276;2023-07-20T13:17:57;50.10;84.40
31979;DHT22;18502;43.574;1.276;2023-07-20T13:20:22;50.30;82.20
31979;DHT22;18502;43.574;1.276;2023-07-20T13:22:48;50.00;80.30
31979;DHT22;18502;43.574;1.276;2023-07-20T13:25:14;49.90;79.30
31979;DHT22;18502;43.574;1.276;2023-07-20T13:27:58;49.90;79.50
31979;DHT22;18502;43.574;1.276;2023-07-20T13:30:24;49.30;77.90
31979;DHT22;18502;43.574;1.276;2023-07-20T13:32:50;50.00;80.30
31979;DHT22;18502;43.574;1.276;2023-07-20T13:35:15;49.80;79.20
31979;DHT22;18502;43.574;1.276;2023-07-20T13:37:41;48.40;79.80
31979;DHT22;18502;43.574;1.276;2023-07-20T13:40:07;48.00;77.30
31979;DHT22;18502;43.574;1.276;2023-07-20T13:42:39;47.90;77.90
31979;DHT22;18502;43.574;1.276;2023-07-20T13:45:06;45.50;78.50
31979;DHT22;18502;43.574;1.276;2023-07-20T13:47:31;45.70;79.10
31979;DHT22;18502;43.574;1.276;2023-07-20T13:49:57;48.00;80.50
31979;DHT22;18502;43.574;1.276;2023-07-20T13:52:23;48.80;76.70
31979;DHT22;18502;43.574;1.276;2023-07-20T13:54:48;49.70;78.50
31979;DHT22;18502;43.574;1.276;2023-07-20T13:57:14;50.30;76.80
31979;DHT22;18502;43.574;1.276;2023-07-20T13:59:40;50.60;77.40
31979;DHT22;18502;43.574;1.276;2023-07-20T14:02:07;50.60;75.00
31979;DHT22;18502;43.574;1.276;2023-07-20T14:04:32;50.90;75.30
31979;DHT22;18502;43.574;1.276;2023-07-20T14:06:58;51.10;73.60
31979;DHT22;18502;43.574;1.276;2023-07-20T14:09:24;48.00;72.40
31979;DHT22;18502;43.574;1.276;2023-07-20T14:11:49;46.50;74.30
31979;DHT22;18502;43.574;1.276;2023-07-20T14:14:15;47.80;73.60
31979;DHT22;18502;43.574;1.276;2023-07-20T14:16:40;45.90;75.70
31979;DHT22;18502;43.574;1.276;2023-07-20T14:19:07;48.00;74.30
31979;DHT22;18502;43.574;1.276;2023-07-20T14:21:32;47.60;76.20
31979;DHT22;18502;43.574;1.276;2023-07-20T14:23:58;49.20;74.90
31979;DHT22;18502;43.574;1.276;2023-07-20T14:26:24;48.90;73.50
31979;DHT22;18502;43.574;1.276;2023-07-20T14:28:50;47.80;75.80
31979;DHT22;18502;43.574;1.276;2023-07-20T14:31:15;48.90;73.70
31979;DHT22;18502;43.574;1.276;2023-07-20T14:33:41;49.90;73.80
31979;DHT22;18502;43.574;1.276;2023-07-20T14:36:07;47.90;74.70
31979;DHT22;18502;43.574;1.276;2023-07-20T14:38:33;49.80;75.30
31979;DHT22;18502;43.574;1.276;2023-07-20T14:40:59;48.60;75.40
31979;DHT22;18502;43.574;1.276;2023-07-20T14:43:25;49.50;73.40
31979;DHT22;18502;43.574;1.276;2023-07-20T14:45:50;49.90;73.10
31979;DHT22;18502;43.574;1.276;2023-07-20T14:48:16;49.60;73.00
31979;DHT22;18502;43.574;1.276;2023-07-20T14:50:42;47.70;73.90
31979;DHT22;18502;43.574;1.276;2023-07-20T14:53:11;47.00;74.20
31979;DHT22;18502;43.574;1.276;2023-07-20T14:55:37;46.10;73.80
31979;DHT22;18502;43.574;1.276;2023-07-20T14:58:03;46.60;75.70
31979;DHT22;18502;43.574;1.276;2023-07-20T15:00:28;46.90;73.60
31979;DHT22;18502;43.574;1.276;2023-07-20T15:02:55;48.70;75.40
31979;DHT22;18502;43.574;1.276;2023-07-20T15:05:23;49.90;74.20
31979;DHT22;18502;43.574;1.276;2023-07-20T15:07:49;49.60;74.00
31979;DHT22;18502;43.574;1.276;2023-07-20T15:10:15;46.30;71.40
31979;DHT22;18502;43.574;1.276;2023-07-20T15:12:41;45.50;76.40
31979;DHT22;18502;43.574;1.276;2023-07-20T15:15:14;48.00;73.70
31979;DHT22;18502;43.574;1.276;2023-07-20T15:17:44;44.10;73.20
31979;DHT22;18502;43.574;1.276;2023-07-20T15:20:12;40.80;78.10
31979;DHT22;18502;43.574;1.276;2023-07-20T15:22:38;43.80;76.20
31979;DHT22;18502;43.574;1.276;2023-07-20T15:25:07;42.80;77.20
31979;DHT22;18502;43.574;1.276;2023-07-20T15:27:33;45.00;76.50
31979;DHT22;18502;43.574;1.276;2023-07-20T15:30:00;46.20;76.30
31979;DHT22;18502;43.574;1.276;2023-07-20T15:32:25;44.30;76.50
31979;DHT22;18502;43.574;1.276;2023-07-20T15:34:51;45.80;76.00
31979;DHT22;18502;43.574;1.276;2023-07-20T15:37:17;47.30;74.60
31979;DHT22;18502;43.574;1.276;2023-07-20T15:39:43;47.60;73.80
31979;DHT22;18502;43.574;1.276;2023-07-20T15:42:08;42.60;74.70
31979;DHT22;18502;43.574;1.276;2023-07-20T15:44:34;43.30;75.70
31979;DHT22;18502;43.574;1.276;2023-07-20T15:47:00;42.50;77.00
31979;DHT22;18502;43.574;1.276;2023-07-20T15:49:27;45.20;77.00
31979;DHT22;18502;43.574;1.276;2023-07-20T15:51:53;46.30;76.60
31979;DHT22;18502;43.574;1.276;2023-07-20T15:54:19;46.10;73.90
31979;DHT22;18502;43.574;1.276;2023-07-20T15:56:45;45.00;74.10
31979;DHT22;18502;43.574;1.276;2023-07-20T15:59:12;44.70;74.50